Hovedside
METAR-TAF:

METAR-TAF

Lufthavner :

Karlstad, Sverige

Karlstad lufthavn

breddegrad: 59-26-41N, lengdegrad: 013-20-15E, høyde over havet: 107 m

Gjeldene værobservasjon

Denne rapporten ble laget for 20 minutter siden, klokken 11:50 UTC
Vind 7 kt fra Nord-nordvest, skiftende mellom Vest-nordvest og Nord
Temperatur 0°C
Luftfuktighet 86%
Trykk 988 hPa
Sikt 10 km eller mer
ingen skyer under 1500 m og ingen bygeskyer

METAR: ESOK 151150Z 33007KT 300V010 CAVOK M00/M02 Q0988

Tid: 13:10 (12:10 UTC)

Varsel

Denne rapporten ble laget for 40 minutter siden, klokken 11:30 UTC
Varsel gyldig fra 15. klokken 12 UTC til 15. klokken 21 UTC
Vind 6 kt fra Nordvest
Sikt 10 km eller mer
ingen skyer under 1500 m og ingen bygeskyer

TAF: ESOK 151130Z 1512/1521 32006KT CAVOK

Værobservasjoner og værvarsel for over 4000 flyplasser (METAR- og TAF-rapporter).

Tilgjengelige stasjoner er representert av de røde og gule prikkene på kartet.

Hold musepekeren over prikken for å se navnet på stasjonen.

Klikk så for å se værobservasjoner og -varsler.

For å forandre kartet kan du klikke på den grønne knappen med svart kryss for å zoome inn, på den grønne knappen med strek for å zoome ut, eller på de grønne pilene for å se tilstøtende kart.


METAR-TAF: